sensor_id;sensor_type;location;lat;lon;timestamp;P1;durP1;ratioP1;P2;durP2;ratioP2
52322;SDS011;38263;52.920;6.238;2024-03-02T00:00:18;2.55;;;1.90;;
52322;SDS011;38263;52.920;6.238;2024-03-02T00:02:46;2.33;;;1.88;;
52322;SDS011;38263;52.920;6.238;2024-03-02T00:05:22;2.50;;;1.63;;
52322;SDS011;38263;52.920;6.238;2024-03-02T00:07:54;4.85;;;2.28;;
52322;SDS011;38263;52.920;6.238;2024-03-02T00:10:22;3.20;;;2.35;;
52322;SDS011;38263;52.920;6.238;2024-03-02T00:12:56;4.70;;;2.47;;
52322;SDS011;38263;52.920;6.238;2024-03-02T00:18:06;2.92;;;1.80;;
52322;SDS011;38263;52.920;6.238;2024-03-02T00:20:32;3.72;;;2.65;;
52322;SDS011;38263;52.920;6.238;2024-03-02T00:23:07;3.42;;;2.30;;
52322;SDS011;38263;52.920;6.238;2024-03-02T00:25:38;3.60;;;2.30;;
52322;SDS011;38263;52.920;6.238;2024-03-02T00:28:19;4.95;;;2.33;;
52322;SDS011;38263;52.920;6.238;2024-03-02T00:33:12;3.15;;;2.50;;
52322;SDS011;38263;52.920;6.238;2024-03-02T00:35:38;2.95;;;2.40;;
52322;SDS011;38263;52.920;6.238;2024-03-02T00:38:04;3.47;;;2.33;;
52322;SDS011;38263;52.920;6.238;2024-03-02T00:40:31;3.58;;;2.13;;
52322;SDS011;38263;52.920;6.238;2024-03-02T00:42:57;6.63;;;2.42;;
52322;SDS011;38263;52.920;6.238;2024-03-02T00:45:23;4.22;;;2.83;;
52322;SDS011;38263;52.920;6.238;2024-03-02T00:47:50;3.38;;;2.53;;
52322;SDS011;38263;52.920;6.238;2024-03-02T00:50:16;2.47;;;2.28;;
52322;SDS011;38263;52.920;6.238;2024-03-02T00:52:42;4.70;;;2.00;;
52322;SDS011;38263;52.920;6.238;2024-03-02T00:55:08;4.45;;;2.35;;
52322;SDS011;38263;52.920;6.238;2024-03-02T00:57:35;5.53;;;2.10;;
52322;SDS011;38263;52.920;6.238;2024-03-02T01:00:01;2.55;;;2.28;;
52322;SDS011;38263;52.920;6.238;2024-03-02T01:02:28;3.65;;;2.92;;
52322;SDS011;38263;52.920;6.238;2024-03-02T01:04:54;2.90;;;2.22;;
52322;SDS011;38263;52.920;6.238;2024-03-02T01:07:20;5.07;;;2.47;;
52322;SDS011;38263;52.920;6.238;2024-03-02T01:09:46;2.33;;;1.98;;
52322;SDS011;38263;52.920;6.238;2024-03-02T01:12:12;3.28;;;2.25;;
52322;SDS011;38263;52.920;6.238;2024-03-02T01:14:38;2.25;;;2.03;;
52322;SDS011;38263;52.920;6.238;2024-03-02T01:17:05;2.42;;;1.73;;
52322;SDS011;38263;52.920;6.238;2024-03-02T01:19:30;3.55;;;2.30;;
52322;SDS011;38263;52.920;6.238;2024-03-02T01:21:56;6.22;;;2.45;;
52322;SDS011;38263;52.920;6.238;2024-03-02T01:24:22;3.78;;;2.58;;
52322;SDS011;38263;52.920;6.238;2024-03-02T01:26:48;2.35;;;1.73;;
52322;SDS011;38263;52.920;6.238;2024-03-02T01:29:14;2.80;;;2.20;;
52322;SDS011;38263;52.920;6.238;2024-03-02T01:31:40;2.05;;;1.70;;
52322;SDS011;38263;52.920;6.238;2024-03-02T01:34:07;2.85;;;2.10;;
52322;SDS011;38263;52.920;6.238;2024-03-02T01:36:33;3.88;;;2.20;;
52322;SDS011;38263;52.920;6.238;2024-03-02T01:38:59;3.08;;;2.00;;
52322;SDS011;38263;52.920;6.238;2024-03-02T01:41:26;2.70;;;2.05;;
52322;SDS011;38263;52.920;6.238;2024-03-02T01:43:51;3.50;;;2.10;;
52322;SDS011;38263;52.920;6.238;2024-03-02T01:46:18;2.63;;;1.88;;
52322;SDS011;38263;52.920;6.238;2024-03-02T01:48:44;3.15;;;2.17;;
52322;SDS011;38263;52.920;6.238;2024-03-02T01:51:10;3.55;;;2.58;;
52322;SDS011;38263;52.920;6.238;2024-03-02T01:53:36;2.55;;;2.25;;
52322;SDS011;38263;52.920;6.238;2024-03-02T01:56:03;3.03;;;2.17;;
52322;SDS011;38263;52.920;6.238;2024-03-02T01:58:29;2.75;;;2.30;;
52322;SDS011;38263;52.920;6.238;2024-03-02T02:00:55;4.32;;;2.42;;
52322;SDS011;38263;52.920;6.238;2024-03-02T02:03:21;6.53;;;2.67;;
52322;SDS011;38263;52.920;6.238;2024-03-02T02:05:47;3.15;;;2.45;;
52322;SDS011;38263;52.920;6.238;2024-03-02T02:08:13;5.20;;;2.22;;
52322;SDS011;38263;52.920;6.238;2024-03-02T02:10:39;3.83;;;2.45;;
52322;SDS011;38263;52.920;6.238;2024-03-02T02:13:05;4.32;;;2.13;;
52322;SDS011;38263;52.920;6.238;2024-03-02T02:15:32;3.22;;;2.25;;
52322;SDS011;38263;52.920;6.238;2024-03-02T02:18:00;3.13;;;2.08;;
52322;SDS011;38263;52.920;6.238;2024-03-02T02:20:26;5.00;;;2.30;;
52322;SDS011;38263;52.920;6.238;2024-03-02T02:22:56;3.28;;;2.50;;
52322;SDS011;38263;52.920;6.238;2024-03-02T02:25:29;4.20;;;2.30;;
52322;SDS011;38263;52.920;6.238;2024-03-02T02:27:55;2.95;;;2.10;;
52322;SDS011;38263;52.920;6.238;2024-03-02T02:30:23;2.97;;;2.47;;
52322;SDS011;38263;52.920;6.238;2024-03-02T02:32:54;8.45;;;1.83;;
52322;SDS011;38263;52.920;6.238;2024-03-02T02:35:20;2.50;;;2.20;;
52322;SDS011;38263;52.920;6.238;2024-03-02T02:37:47;3.88;;;2.75;;
52322;SDS011;38263;52.920;6.238;2024-03-02T02:40:14;6.45;;;2.20;;
52322;SDS011;38263;52.920;6.238;2024-03-02T02:42:40;2.17;;;1.73;;
52322;SDS011;38263;52.920;6.238;2024-03-02T02:45:06;2.72;;;2.10;;
52322;SDS011;38263;52.920;6.238;2024-03-02T02:47:32;3.55;;;2.50;;
52322;SDS011;38263;52.920;6.238;2024-03-02T02:50:02;2.75;;;2.13;;
52322;SDS011;38263;52.920;6.238;2024-03-02T02:52:32;3.63;;;2.38;;
52322;SDS011;38263;52.920;6.238;2024-03-02T02:54:58;4.18;;;2.22;;
52322;SDS011;38263;52.920;6.238;2024-03-02T02:57:25;2.70;;;2.33;;
52322;SDS011;38263;52.920;6.238;2024-03-02T02:59:51;4.57;;;2.45;;
52322;SDS011;38263;52.920;6.238;2024-03-02T03:02:17;2.50;;;2.05;;
52322;SDS011;38263;52.920;6.238;2024-03-02T03:04:43;3.45;;;2.30;;
52322;SDS011;38263;52.920;6.238;2024-03-02T03:07:09;3.95;;;2.20;;
52322;SDS011;38263;52.920;6.238;2024-03-02T03:09:37;3.15;;;2.25;;
52322;SDS011;38263;52.920;6.238;2024-03-02T03:12:03;3.20;;;1.75;;
52322;SDS011;38263;52.920;6.238;2024-03-02T03:14:30;2.42;;;2.08;;
52322;SDS011;38263;52.920;6.238;2024-03-02T03:16:56;4.53;;;2.30;;
52322;SDS011;38263;52.920;6.238;2024-03-02T03:19:22;3.30;;;1.70;;
52322;SDS011;38263;52.920;6.238;2024-03-02T03:21:48;2.83;;;2.20;;
52322;SDS011;38263;52.920;6.238;2024-03-02T03:24:13;2.80;;;2.40;;
52322;SDS011;38263;52.920;6.238;2024-03-02T03:26:39;5.13;;;2.53;;
52322;SDS011;38263;52.920;6.238;2024-03-02T03:29:05;5.22;;;2.10;;
52322;SDS011;38263;52.920;6.238;2024-03-02T03:31:31;3.45;;;2.00;;
52322;SDS011;38263;52.920;6.238;2024-03-02T03:33:57;3.78;;;2.47;;
52322;SDS011;38263;52.920;6.238;2024-03-02T03:36:23;3.10;;;2.35;;
52322;SDS011;38263;52.920;6.238;2024-03-02T03:38:49;2.92;;;1.95;;
52322;SDS011;38263;52.920;6.238;2024-03-02T03:41:15;2.60;;;1.95;;
52322;SDS011;38263;52.920;6.238;2024-03-02T03:43:41;4.57;;;2.50;;
52322;SDS011;38263;52.920;6.238;2024-03-02T03:46:07;3.45;;;2.17;;
52322;SDS011;38263;52.920;6.238;2024-03-02T03:48:33;3.10;;;2.20;;
52322;SDS011;38263;52.920;6.238;2024-03-02T03:50:59;3.72;;;2.28;;
52322;SDS011;38263;52.920;6.238;2024-03-02T03:53:25;5.18;;;2.55;;
52322;SDS011;38263;52.920;6.238;2024-03-02T03:55:51;6.13;;;2.30;;
52322;SDS011;38263;52.920;6.238;2024-03-02T03:58:17;3.92;;;2.00;;
52322;SDS011;38263;52.920;6.238;2024-03-02T04:00:45;4.60;;;2.28;;
52322;SDS011;38263;52.920;6.238;2024-03-02T04:03:11;3.33;;;2.28;;
52322;SDS011;38263;52.920;6.238;2024-03-02T04:05:38;3.80;;;2.30;;
52322;SDS011;38263;52.920;6.238;2024-03-02T04:08:04;3.38;;;2.17;;
52322;SDS011;38263;52.920;6.238;2024-03-02T04:10:30;3.25;;;2.38;;
52322;SDS011;38263;52.920;6.238;2024-03-02T04:12:56;5.25;;;2.70;;
52322;SDS011;38263;52.920;6.238;2024-03-02T04:15:22;3.55;;;2.00;;
52322;SDS011;38263;52.920;6.238;2024-03-02T04:17:48;3.67;;;2.45;;
52322;SDS011;38263;52.920;6.238;2024-03-02T04:20:14;3.15;;;2.20;;
52322;SDS011;38263;52.920;6.238;2024-03-02T04:22:40;3.42;;;2.45;;
52322;SDS011;38263;52.920;6.238;2024-03-02T04:25:07;3.50;;;2.75;;
52322;SDS011;38263;52.920;6.238;2024-03-02T04:27:33;3.83;;;2.60;;
52322;SDS011;38263;52.920;6.238;2024-03-02T04:29:59;3.85;;;2.20;;
52322;SDS011;38263;52.920;6.238;2024-03-02T04:32:25;5.75;;;2.53;;
52322;SDS011;38263;52.920;6.238;2024-03-02T04:34:52;4.53;;;2.50;;
52322;SDS011;38263;52.920;6.238;2024-03-02T04:37:18;4.05;;;2.08;;
52322;SDS011;38263;52.920;6.238;2024-03-02T04:39:44;5.20;;;2.15;;
52322;SDS011;38263;52.920;6.238;2024-03-02T04:42:10;4.20;;;2.25;;
52322;SDS011;38263;52.920;6.238;2024-03-02T04:44:36;4.95;;;2.08;;
52322;SDS011;38263;52.920;6.238;2024-03-02T04:47:03;2.88;;;1.90;;
52322;SDS011;38263;52.920;6.238;2024-03-02T04:49:29;2.97;;;2.13;;
52322;SDS011;38263;52.920;6.238;2024-03-02T04:51:55;3.33;;;1.98;;
52322;SDS011;38263;52.920;6.238;2024-03-02T04:54:24;2.72;;;2.15;;
52322;SDS011;38263;52.920;6.238;2024-03-02T04:56:50;1.67;;;1.50;;
52322;SDS011;38263;52.920;6.238;2024-03-02T04:59:16;2.88;;;1.83;;
52322;SDS011;38263;52.920;6.238;2024-03-02T05:01:43;2.50;;;1.52;;
52322;SDS011;38263;52.920;6.238;2024-03-02T05:04:09;1.60;;;1.50;;
52322;SDS011;38263;52.920;6.238;2024-03-02T05:06:38;1.30;;;1.00;;
52322;SDS011;38263;52.920;6.238;2024-03-02T05:09:05;1.52;;;1.00;;
52322;SDS011;38263;52.920;6.238;2024-03-02T05:11:31;3.33;;;1.00;;
52322;SDS011;38263;52.920;6.238;2024-03-02T05:14:17;1.38;;;0.93;;
52322;SDS011;38263;52.920;6.238;2024-03-02T05:16:43;0.80;;;0.80;;
52322;SDS011;38263;52.920;6.238;2024-03-02T05:19:09;1.25;;;0.88;;
52322;SDS011;38263;52.920;6.238;2024-03-02T05:21:35;2.13;;;1.00;;
52322;SDS011;38263;52.920;6.238;2024-03-02T05:24:01;1.13;;;1.10;;
52322;SDS011;38263;52.920;6.238;2024-03-02T05:26:27;1.40;;;0.90;;
52322;SDS011;38263;52.920;6.238;2024-03-02T05:28:53;1.40;;;1.10;;
52322;SDS011;38263;52.920;6.238;2024-03-02T05:31:19;1.08;;;0.98;;
52322;SDS011;38263;52.920;6.238;2024-03-02T05:33:45;0.80;;;0.80;;
52322;SDS011;38263;52.920;6.238;2024-03-02T05:36:11;1.10;;;1.00;;
52322;SDS011;38263;52.920;6.238;2024-03-02T05:38:37;1.08;;;0.80;;
52322;SDS011;38263;52.920;6.238;2024-03-02T05:41:03;1.30;;;0.63;;
52322;SDS011;38263;52.920;6.238;2024-03-02T05:43:29;0.85;;;0.80;;
52322;SDS011;38263;52.920;6.238;2024-03-02T05:45:55;0.90;;;0.88;;
52322;SDS011;38263;52.920;6.238;2024-03-02T05:48:21;1.35;;;0.70;;
52322;SDS011;38263;52.920;6.238;2024-03-02T05:50:47;1.10;;;1.00;;
52322;SDS011;38263;52.920;6.238;2024-03-02T05:53:13;1.13;;;1.02;;
52322;SDS011;38263;52.920;6.238;2024-03-02T05:55:40;1.95;;;0.90;;
52322;SDS011;38263;52.920;6.238;2024-03-02T05:58:06;1.13;;;0.93;;
52322;SDS011;38263;52.920;6.238;2024-03-02T06:00:59;1.10;;;0.90;;
52322;SDS011;38263;52.920;6.238;2024-03-02T06:03:25;2.38;;;1.13;;
52322;SDS011;38263;52.920;6.238;2024-03-02T06:05:51;0.93;;;0.88;;
52322;SDS011;38263;52.920;6.238;2024-03-02T06:08:17;0.75;;;0.73;;
52322;SDS011;38263;52.920;6.238;2024-03-02T06:10:43;0.90;;;0.77;;
52322;SDS011;38263;52.920;6.238;2024-03-02T06:13:09;1.00;;;1.00;;
52322;SDS011;38263;52.920;6.238;2024-03-02T06:15:35;1.05;;;0.73;;
52322;SDS011;38263;52.920;6.238;2024-03-02T06:18:01;1.00;;;1.00;;
52322;SDS011;38263;52.920;6.238;2024-03-02T06:20:27;0.82;;;0.82;;
52322;SDS011;38263;52.920;6.238;2024-03-02T06:22:55;1.35;;;0.90;;
52322;SDS011;38263;52.920;6.238;2024-03-02T06:25:21;1.00;;;1.00;;
52322;SDS011;38263;52.920;6.238;2024-03-02T06:27:47;1.00;;;0.90;;
52322;SDS011;38263;52.920;6.238;2024-03-02T06:30:13;2.13;;;1.20;;
52322;SDS011;38263;52.920;6.238;2024-03-02T06:32:39;1.42;;;1.08;;
52322;SDS011;38263;52.920;6.238;2024-03-02T06:35:06;1.30;;;1.20;;
52322;SDS011;38263;52.920;6.238;2024-03-02T06:37:35;1.20;;;1.10;;
52322;SDS011;38263;52.920;6.238;2024-03-02T06:40:01;1.65;;;1.20;;
52322;SDS011;38263;52.920;6.238;2024-03-02T06:42:27;1.17;;;1.08;;
52322;SDS011;38263;52.920;6.238;2024-03-02T06:44:58;1.30;;;1.20;;
52322;SDS011;38263;52.920;6.238;2024-03-02T06:47:24;1.63;;;1.08;;
52322;SDS011;38263;52.920;6.238;2024-03-02T06:49:50;1.52;;;1.27;;
52322;SDS011;38263;52.920;6.238;2024-03-02T06:52:16;1.20;;;1.10;;
52322;SDS011;38263;52.920;6.238;2024-03-02T06:54:42;1.48;;;1.38;;
52322;SDS011;38263;52.920;6.238;2024-03-02T06:57:08;1.52;;;1.00;;
52322;SDS011;38263;52.920;6.238;2024-03-02T06:59:34;1.75;;;1.42;;
52322;SDS011;38263;52.920;6.238;2024-03-02T07:02:00;1.70;;;1.50;;
52322;SDS011;38263;52.920;6.238;2024-03-02T07:04:27;3.03;;;1.10;;
52322;SDS011;38263;52.920;6.238;2024-03-02T07:06:53;1.30;;;1.00;;
52322;SDS011;38263;52.920;6.238;2024-03-02T07:09:20;1.73;;;1.33;;
52322;SDS011;38263;52.920;6.238;2024-03-02T07:11:48;2.90;;;1.20;;
52322;SDS011;38263;52.920;6.238;2024-03-02T07:14:14;1.60;;;1.13;;
52322;SDS011;38263;52.920;6.238;2024-03-02T07:16:40;1.17;;;1.08;;
52322;SDS011;38263;52.920;6.238;2024-03-02T07:19:08;1.33;;;0.98;;
52322;SDS011;38263;52.920;6.238;2024-03-02T07:21:34;2.58;;;0.90;;
52322;SDS011;38263;52.920;6.238;2024-03-02T07:24:00;1.23;;;0.98;;
52322;SDS011;38263;52.920;6.238;2024-03-02T07:26:29;3.15;;;1.40;;
52322;SDS011;38263;52.920;6.238;2024-03-02T07:28:56;1.80;;;1.13;;
52322;SDS011;38263;52.920;6.238;2024-03-02T07:31:22;1.42;;;1.10;;
52322;SDS011;38263;52.920;6.238;2024-03-02T07:33:48;1.33;;;1.23;;
52322;SDS011;38263;52.920;6.238;2024-03-02T07:36:14;1.83;;;1.38;;
52322;SDS011;38263;52.920;6.238;2024-03-02T07:38:40;1.55;;;1.05;;
52322;SDS011;38263;52.920;6.238;2024-03-02T07:41:06;1.05;;;0.98;;
52322;SDS011;38263;52.920;6.238;2024-03-02T07:43:32;1.52;;;1.40;;
52322;SDS011;38263;52.920;6.238;2024-03-02T07:45:58;1.10;;;1.00;;
52322;SDS011;38263;52.920;6.238;2024-03-02T07:48:25;2.00;;;1.13;;
52322;SDS011;38263;52.920;6.238;2024-03-02T07:50:51;1.00;;;0.90;;
52322;SDS011;38263;52.920;6.238;2024-03-02T07:53:17;2.08;;;0.88;;
52322;SDS011;38263;52.920;6.238;2024-03-02T07:55:43;1.85;;;1.10;;
52322;SDS011;38263;52.920;6.238;2024-03-02T07:58:09;1.38;;;1.02;;
52322;SDS011;38263;52.920;6.238;2024-03-02T08:00:36;0.90;;;0.90;;
52322;SDS011;38263;52.920;6.238;2024-03-02T08:03:04;1.20;;;1.10;;
52322;SDS011;38263;52.920;6.238;2024-03-02T08:05:30;1.30;;;1.10;;
52322;SDS011;38263;52.920;6.238;2024-03-02T08:07:56;1.88;;;1.00;;
52322;SDS011;38263;52.920;6.238;2024-03-02T08:10:22;1.15;;;1.00;;
52322;SDS011;38263;52.920;6.238;2024-03-02T08:12:48;0.80;;;0.80;;
52322;SDS011;38263;52.920;6.238;2024-03-02T08:15:13;1.20;;;1.00;;
52322;SDS011;38263;52.920;6.238;2024-03-02T08:17:40;1.58;;;1.38;;
52322;SDS011;38263;52.920;6.238;2024-03-02T08:20:10;3.33;;;1.10;;
52322;SDS011;38263;52.920;6.238;2024-03-02T08:22:36;3.97;;;1.00;;
52322;SDS011;38263;52.920;6.238;2024-03-02T08:25:02;1.45;;;1.25;;
52322;SDS011;38263;52.920;6.238;2024-03-02T08:27:28;2.60;;;1.08;;
52322;SDS011;38263;52.920;6.238;2024-03-02T08:29:54;4.45;;;0.73;;
52322;SDS011;38263;52.920;6.238;2024-03-02T08:32:20;1.40;;;1.00;;
52322;SDS011;38263;52.920;6.238;2024-03-02T08:34:47;1.50;;;1.20;;
52322;SDS011;38263;52.920;6.238;2024-03-02T08:37:13;1.73;;;0.80;;
52322;SDS011;38263;52.920;6.238;2024-03-02T08:39:39;1.58;;;0.90;;
52322;SDS011;38263;52.920;6.238;2024-03-02T08:42:05;2.83;;;0.98;;
52322;SDS011;38263;52.920;6.238;2024-03-02T08:44:30;2.17;;;0.73;;
52322;SDS011;38263;52.920;6.238;2024-03-02T08:46:56;0.70;;;0.50;;
52322;SDS011;38263;52.920;6.238;2024-03-02T08:49:22;2.05;;;0.80;;
52322;SDS011;38263;52.920;6.238;2024-03-02T08:51:47;3.40;;;1.05;;
52322;SDS011;38263;52.920;6.238;2024-03-02T08:54:20;2.08;;;1.10;;
52322;SDS011;38263;52.920;6.238;2024-03-02T08:56:51;2.47;;;1.08;;
52322;SDS011;38263;52.920;6.238;2024-03-02T08:59:17;2.22;;;0.93;;
52322;SDS011;38263;52.920;6.238;2024-03-02T09:01:42;1.65;;;0.73;;
52322;SDS011;38263;52.920;6.238;2024-03-02T09:04:08;1.15;;;0.65;;
52322;SDS011;38263;52.920;6.238;2024-03-02T09:06:34;1.27;;;0.90;;
52322;SDS011;38263;52.920;6.238;2024-03-02T09:09:00;2.08;;;0.80;;
52322;SDS011;38263;52.920;6.238;2024-03-02T09:11:26;2.75;;;1.08;;
52322;SDS011;38263;52.920;6.238;2024-03-02T09:13:52;2.30;;;1.15;;
52322;SDS011;38263;52.920;6.238;2024-03-02T09:16:19;1.80;;;1.00;;
52322;SDS011;38263;52.920;6.238;2024-03-02T09:18:45;2.00;;;1.05;;
52322;SDS011;38263;52.920;6.238;2024-03-02T09:21:12;1.80;;;0.90;;
52322;SDS011;38263;52.920;6.238;2024-03-02T09:23:38;2.17;;;1.05;;
52322;SDS011;38263;52.920;6.238;2024-03-02T09:26:05;1.10;;;1.00;;
52322;SDS011;38263;52.920;6.238;2024-03-02T09:28:31;1.55;;;1.13;;
52322;SDS011;38263;52.920;6.238;2024-03-02T09:30:56;2.83;;;1.08;;
52322;SDS011;38263;52.920;6.238;2024-03-02T09:33:22;1.15;;;0.82;;
52322;SDS011;38263;52.920;6.238;2024-03-02T09:35:48;1.70;;;0.90;;
52322;SDS011;38263;52.920;6.238;2024-03-02T09:38:13;2.03;;;1.30;;
52322;SDS011;38263;52.920;6.238;2024-03-02T09:40:41;2.00;;;1.40;;
52322;SDS011;38263;52.920;6.238;2024-03-02T09:43:07;1.73;;;1.00;;
52322;SDS011;38263;52.920;6.238;2024-03-02T09:45:33;2.17;;;0.75;;
52322;SDS011;38263;52.920;6.238;2024-03-02T09:47:59;5.03;;;1.13;;
52322;SDS011;38263;52.920;6.238;2024-03-02T09:50:25;1.58;;;0.70;;
52322;SDS011;38263;52.920;6.238;2024-03-02T09:52:50;1.13;;;0.63;;
52322;SDS011;38263;52.920;6.238;2024-03-02T09:55:18;1.02;;;0.60;;
52322;SDS011;38263;52.920;6.238;2024-03-02T09:57:44;2.08;;;0.60;;
52322;SDS011;38263;52.920;6.238;2024-03-02T10:00:11;3.08;;;0.80;;
52322;SDS011;38263;52.920;6.238;2024-03-02T10:02:40;0.85;;;0.60;;
52322;SDS011;38263;52.920;6.238;2024-03-02T10:05:07;2.83;;;0.70;;
52322;SDS011;38263;52.920;6.238;2024-03-02T10:07:33;1.58;;;0.73;;
52322;SDS011;38263;52.920;6.238;2024-03-02T10:10:00;3.35;;;0.70;;
52322;SDS011;38263;52.920;6.238;2024-03-02T10:12:40;2.25;;;1.02;;
52322;SDS011;38263;52.920;6.238;2024-03-02T10:15:06;1.80;;;0.60;;
52322;SDS011;38263;52.920;6.238;2024-03-02T10:17:32;2.70;;;0.70;;
52322;SDS011;38263;52.920;6.238;2024-03-02T10:19:58;1.58;;;0.60;;
52322;SDS011;38263;52.920;6.238;2024-03-02T10:22:23;3.42;;;0.90;;
52322;SDS011;38263;52.920;6.238;2024-03-02T10:24:49;2.42;;;0.70;;
52322;SDS011;38263;52.920;6.238;2024-03-02T10:27:16;2.30;;;0.47;;
52322;SDS011;38263;52.920;6.238;2024-03-02T10:29:45;2.55;;;0.65;;
52322;SDS011;38263;52.920;6.238;2024-03-02T10:32:11;3.65;;;0.60;;
52322;SDS011;38263;52.920;6.238;2024-03-02T10:34:40;3.67;;;0.73;;
52322;SDS011;38263;52.920;6.238;2024-03-02T10:37:07;2.42;;;0.50;;
52322;SDS011;38263;52.920;6.238;2024-03-02T10:39:37;3.63;;;0.55;;
52322;SDS011;38263;52.920;6.238;2024-03-02T10:42:05;0.80;;;0.40;;
52322;SDS011;38263;52.920;6.238;2024-03-02T10:44:31;1.85;;;0.50;;
52322;SDS011;38263;52.920;6.238;2024-03-02T10:47:01;3.47;;;0.50;;
52322;SDS011;38263;52.920;6.238;2024-03-02T10:49:29;0.93;;;0.70;;
52322;SDS011;38263;52.920;6.238;2024-03-02T10:51:56;2.35;;;0.60;;
52322;SDS011;38263;52.920;6.238;2024-03-02T10:54:22;1.50;;;0.57;;
52322;SDS011;38263;52.920;6.238;2024-03-02T10:56:51;1.70;;;0.60;;
52322;SDS011;38263;52.920;6.238;2024-03-02T11:01:52;2.47;;;0.60;;
52322;SDS011;38263;52.920;6.238;2024-03-02T11:04:20;2.17;;;0.95;;
52322;SDS011;38263;52.920;6.238;2024-03-02T11:06:49;2.13;;;0.70;;
52322;SDS011;38263;52.920;6.238;2024-03-02T11:09:16;5.20;;;0.98;;
52322;SDS011;38263;52.920;6.238;2024-03-02T11:11:45;1.60;;;0.93;;
52322;SDS011;38263;52.920;6.238;2024-03-02T11:14:24;1.42;;;0.73;;
52322;SDS011;38263;52.920;6.238;2024-03-02T11:16:50;1.48;;;0.60;;
52322;SDS011;38263;52.920;6.238;2024-03-02T11:19:17;2.47;;;0.60;;
52322;SDS011;38263;52.920;6.238;2024-03-02T11:21:43;2.83;;;0.82;;
52322;SDS011;38263;52.920;6.238;2024-03-02T11:26:52;1.90;;;0.75;;
52322;SDS011;38263;52.920;6.238;2024-03-02T11:32:03;8.77;;;1.08;;
52322;SDS011;38263;52.920;6.238;2024-03-02T11:34:34;1.95;;;0.68;;
52322;SDS011;38263;52.920;6.238;2024-03-02T11:37:03;2.17;;;0.70;;
52322;SDS011;38263;52.920;6.238;2024-03-02T11:39:30;1.55;;;0.85;;
52322;SDS011;38263;52.920;6.238;2024-03-02T11:41:56;6.20;;;1.27;;
52322;SDS011;38263;52.920;6.238;2024-03-02T11:44:29;1.40;;;0.77;;
52322;SDS011;38263;52.920;6.238;2024-03-02T11:46:58;4.13;;;0.98;;
52322;SDS011;38263;52.920;6.238;2024-03-02T11:52:04;2.30;;;0.90;;
52322;SDS011;38263;52.920;6.238;2024-03-02T11:54:32;4.22;;;1.10;;
52322;SDS011;38263;52.920;6.238;2024-03-02T11:57:01;0.95;;;0.80;;
52322;SDS011;38263;52.920;6.238;2024-03-02T11:59:31;1.27;;;0.80;;
52322;SDS011;38263;52.920;6.238;2024-03-02T12:01:57;3.50;;;1.33;;
52322;SDS011;38263;52.920;6.238;2024-03-02T12:04:24;4.40;;;1.02;;
52322;SDS011;38263;52.920;6.238;2024-03-02T12:06:54;1.20;;;0.80;;
52322;SDS011;38263;52.920;6.238;2024-03-02T12:09:29;1.73;;;1.35;;
52322;SDS011;38263;52.920;6.238;2024-03-02T12:12:05;3.95;;;1.00;;
52322;SDS011;38263;52.920;6.238;2024-03-02T12:14:32;3.58;;;1.00;;
52322;SDS011;38263;52.920;6.238;2024-03-02T12:16:59;3.15;;;1.00;;
52322;SDS011;38263;52.920;6.238;2024-03-02T12:19:25;4.82;;;1.33;;
52322;SDS011;38263;52.920;6.238;2024-03-02T12:21:52;2.28;;;0.98;;
52322;SDS011;38263;52.920;6.238;2024-03-02T12:24:19;2.55;;;1.05;;
52322;SDS011;38263;52.920;6.238;2024-03-02T12:26:46;4.05;;;1.10;;
52322;SDS011;38263;52.920;6.238;2024-03-02T12:29:13;3.40;;;0.85;;
52322;SDS011;38263;52.920;6.238;2024-03-02T12:31:40;2.35;;;1.15;;
52322;SDS011;38263;52.920;6.238;2024-03-02T12:34:06;4.90;;;1.30;;
52322;SDS011;38263;52.920;6.238;2024-03-02T12:36:39;1.77;;;0.90;;
52322;SDS011;38263;52.920;6.238;2024-03-02T12:39:06;4.63;;;0.90;;
52322;SDS011;38263;52.920;6.238;2024-03-02T12:41:38;2.75;;;1.73;;
52322;SDS011;38263;52.920;6.238;2024-03-02T12:44:04;3.97;;;1.13;;
52322;SDS011;38263;52.920;6.238;2024-03-02T12:46:31;2.13;;;0.80;;
52322;SDS011;38263;52.920;6.238;2024-03-02T12:48:57;1.85;;;1.10;;
52322;SDS011;38263;52.920;6.238;2024-03-02T12:51:45;2.92;;;0.98;;
52322;SDS011;38263;52.920;6.238;2024-03-02T12:54:16;1.95;;;0.80;;
52322;SDS011;38263;52.920;6.238;2024-03-02T12:56:42;3.10;;;0.73;;
52322;SDS011;38263;52.920;6.238;2024-03-02T12:59:17;2.50;;;1.08;;
52322;SDS011;38263;52.920;6.238;2024-03-02T13:01:51;4.80;;;1.10;;
52322;SDS011;38263;52.920;6.238;2024-03-02T13:04:25;2.78;;;1.10;;
52322;SDS011;38263;52.920;6.238;2024-03-02T13:06:53;1.75;;;0.75;;
52322;SDS011;38263;52.920;6.238;2024-03-02T13:09:22;1.58;;;1.17;;
52322;SDS011;38263;52.920;6.238;2024-03-02T13:11:48;1.27;;;0.80;;
52322;SDS011;38263;52.920;6.238;2024-03-02T13:14:14;4.10;;;1.00;;
52322;SDS011;38263;52.920;6.238;2024-03-02T13:16:44;1.80;;;0.80;;
52322;SDS011;38263;52.920;6.238;2024-03-02T13:19:12;1.33;;;0.82;;
52322;SDS011;38263;52.920;6.238;2024-03-02T13:21:38;4.68;;;1.10;;
52322;SDS011;38263;52.920;6.238;2024-03-02T13:24:04;2.83;;;1.10;;
52322;SDS011;38263;52.920;6.238;2024-03-02T13:26:30;2.30;;;0.82;;
52322;SDS011;38263;52.920;6.238;2024-03-02T13:28:56;3.42;;;0.98;;
52322;SDS011;38263;52.920;6.238;2024-03-02T13:31:22;2.22;;;0.95;;
52322;SDS011;38263;52.920;6.238;2024-03-02T13:33:47;3.58;;;1.10;;
52322;SDS011;38263;52.920;6.238;2024-03-02T13:36:13;2.42;;;1.00;;
52322;SDS011;38263;52.920;6.238;2024-03-02T13:38:39;4.10;;;1.33;;
52322;SDS011;38263;52.920;6.238;2024-03-02T13:41:04;1.73;;;1.10;;
52322;SDS011;38263;52.920;6.238;2024-03-02T13:43:30;4.50;;;0.98;;
52322;SDS011;38263;52.920;6.238;2024-03-02T13:46:00;2.28;;;1.38;;
52322;SDS011;38263;52.920;6.238;2024-03-02T13:48:28;4.50;;;1.23;;
52322;SDS011;38263;52.920;6.238;2024-03-02T13:50:55;2.50;;;1.05;;
52322;SDS011;38263;52.920;6.238;2024-03-02T13:53:22;1.75;;;0.88;;
52322;SDS011;38263;52.920;6.238;2024-03-02T13:55:48;4.03;;;1.00;;
52322;SDS011;38263;52.920;6.238;2024-03-02T13:58:14;4.38;;;1.20;;
52322;SDS011;38263;52.920;6.238;2024-03-02T14:00:40;3.55;;;1.33;;
52322;SDS011;38263;52.920;6.238;2024-03-02T14:03:05;2.22;;;1.42;;
52322;SDS011;38263;52.920;6.238;2024-03-02T14:05:31;2.20;;;1.25;;
52322;SDS011;38263;52.920;6.238;2024-03-02T14:07:57;2.65;;;1.45;;
52322;SDS011;38263;52.920;6.238;2024-03-02T14:10:25;2.80;;;1.70;;
52322;SDS011;38263;52.920;6.238;2024-03-02T14:12:52;2.88;;;1.63;;
52322;SDS011;38263;52.920;6.238;2024-03-02T14:15:17;4.40;;;1.90;;
52322;SDS011;38263;52.920;6.238;2024-03-02T14:17:43;2.08;;;1.52;;
52322;SDS011;38263;52.920;6.238;2024-03-02T14:20:09;5.55;;;1.50;;
52322;SDS011;38263;52.920;6.238;2024-03-02T14:22:37;4.40;;;1.95;;
52322;SDS011;38263;52.920;6.238;2024-03-02T14:25:03;3.35;;;1.30;;
52322;SDS011;38263;52.920;6.238;2024-03-02T14:27:29;3.42;;;1.75;;
52322;SDS011;38263;52.920;6.238;2024-03-02T14:29:55;4.45;;;2.28;;
52322;SDS011;38263;52.920;6.238;2024-03-02T14:32:20;4.07;;;1.95;;
52322;SDS011;38263;52.920;6.238;2024-03-02T14:34:46;2.65;;;1.90;;
52322;SDS011;38263;52.920;6.238;2024-03-02T14:37:13;2.72;;;2.40;;
52322;SDS011;38263;52.920;6.238;2024-03-02T14:39:39;2.25;;;1.90;;
52322;SDS011;38263;52.920;6.238;2024-03-02T14:42:05;3.55;;;2.22;;
52322;SDS011;38263;52.920;6.238;2024-03-02T14:44:31;4.50;;;2.50;;
52322;SDS011;38263;52.920;6.238;2024-03-02T14:46:58;9.07;;;2.60;;
52322;SDS011;38263;52.920;6.238;2024-03-02T14:49:24;2.85;;;1.90;;
52322;SDS011;38263;52.920;6.238;2024-03-02T14:51:50;5.28;;;2.55;;
52322;SDS011;38263;52.920;6.238;2024-03-02T14:54:16;2.75;;;2.00;;
52322;SDS011;38263;52.920;6.238;2024-03-02T14:56:41;4.10;;;2.10;;
52322;SDS011;38263;52.920;6.238;2024-03-02T14:59:07;3.42;;;2.28;;
52322;SDS011;38263;52.920;6.238;2024-03-02T15:01:33;5.82;;;2.33;;